createdAt,value
2023-02-04T00:01:47.302Z,100.00
2023-02-04T00:05:48.895Z,100.00
2023-02-04T00:09:50.497Z,97.74
2023-02-04T00:13:52.069Z,99.45
2023-02-04T00:17:53.624Z,99.70
2023-02-04T00:21:55.158Z,90.15
2023-02-04T00:25:56.821Z,89.70
2023-02-04T00:29:58.415Z,87.04
2023-02-04T00:34:00.031Z,86.36
2023-02-04T00:38:01.544Z,88.19
2023-02-04T00:42:03.385Z,88.42
2023-02-04T00:46:05.160Z,88.84
2023-02-04T00:50:06.894Z,87.07
2023-02-04T00:54:08.494Z,87.98
2023-02-04T00:58:11.118Z,88.15
2023-02-04T01:02:12.711Z,87.00
2023-02-04T01:06:14.275Z,87.18
2023-02-04T01:10:17.929Z,88.67
2023-02-04T01:14:19.686Z,87.45
2023-02-04T01:18:21.223Z,84.68
2023-02-04T01:22:22.772Z,87.16
2023-02-04T01:26:24.630Z,86.93
2023-02-04T01:30:26.237Z,88.31
2023-02-04T01:34:28.418Z,88.79
2023-02-04T01:38:29.969Z,89.22
2023-02-04T01:42:31.692Z,90.13
2023-02-04T01:46:35.730Z,89.15
2023-02-04T01:50:37.733Z,88.06
2023-02-04T01:54:39.621Z,85.70
2023-02-04T01:58:41.196Z,85.57
2023-02-04T02:02:45.951Z,86.36
2023-02-04T02:06:53.727Z,87.26
2023-02-04T02:10:55.319Z,87.00
2023-02-04T02:14:57.619Z,87.16
2023-02-04T02:19:00.883Z,88.93
2023-02-04T02:23:39.651Z,88.38
2023-02-04T02:27:41.920Z,89.20
2023-02-04T02:31:43.702Z,88.55
2023-02-04T02:35:48.477Z,87.45
2023-02-04T02:39:50.192Z,88.98
2023-02-04T02:43:51.847Z,86.70
2023-02-04T02:47:54.434Z,87.55
2023-02-04T02:51:56.116Z,84.91
2023-02-04T02:55:57.758Z,86.32
2023-02-04T03:00:00.394Z,86.60
2023-02-04T03:04:02.755Z,87.24
2023-02-04T03:08:05.703Z,87.41
2023-02-04T03:12:07.764Z,86.74
2023-02-04T03:16:11.234Z,87.67
2023-02-04T03:20:15.097Z,86.37
2023-02-04T03:24:17.488Z,87.49
2023-02-04T03:28:19.218Z,88.47
2023-02-04T03:32:20.781Z,87.65
2023-02-04T03:36:22.544Z,86.93
2023-02-04T03:40:24.085Z,85.68
2023-02-04T03:44:27.045Z,85.01
2023-02-04T03:48:28.550Z,84.63
2023-02-04T03:52:30.106Z,83.77
2023-02-04T03:56:31.655Z,84.42
2023-02-04T04:00:33.762Z,84.77
2023-02-04T04:04:35.614Z,85.56
2023-02-04T04:08:38.240Z,86.30
2023-02-04T04:12:39.883Z,86.97
2023-02-04T04:16:41.459Z,87.20
2023-02-04T04:20:43.002Z,87.77
2023-02-04T04:24:44.695Z,87.84
2023-02-04T04:28:46.281Z,87.75
2023-02-04T04:32:47.946Z,87.74
2023-02-04T04:36:49.547Z,88.04
2023-02-04T04:40:51.143Z,88.21
2023-02-04T04:44:52.874Z,87.95
2023-02-04T04:48:54.437Z,88.10
2023-02-04T04:52:56.029Z,87.56
2023-02-04T04:56:57.559Z,88.32
2023-02-04T05:00:59.144Z,88.69
2023-02-04T05:05:00.896Z,88.93
2023-02-04T05:09:02.643Z,89.11
2023-02-04T05:13:04.187Z,89.45
2023-02-04T05:17:05.746Z,90.03
2023-02-04T05:21:08.405Z,90.63
2023-02-04T05:25:38.345Z,91.17
2023-02-04T05:29:39.953Z,92.27
2023-02-04T05:33:41.477Z,93.21
2023-02-04T05:37:43.101Z,94.45
2023-02-04T05:41:44.667Z,95.07
2023-02-04T05:45:46.351Z,95.71
2023-02-04T05:49:47.948Z,95.87
2023-02-04T05:53:49.750Z,96.25
2023-02-04T05:57:51.345Z,96.50
2023-02-04T06:01:53.059Z,96.63
2023-02-04T06:05:54.621Z,96.91
2023-02-04T06:09:56.150Z,97.36
2023-02-04T06:13:57.759Z,96.20
2023-02-04T06:17:59.336Z,95.90
2023-02-04T06:22:00.883Z,96.52
2023-02-04T06:26:02.923Z,96.10
2023-02-04T06:30:05.004Z,96.02
2023-02-04T06:34:06.862Z,96.02
2023-02-04T06:38:08.512Z,96.11
2023-02-04T06:42:10.682Z,95.32
2023-02-04T06:46:12.326Z,95.61
2023-02-04T06:50:18.749Z,95.65
2023-02-04T06:54:20.409Z,95.69
2023-02-04T06:58:21.969Z,95.53
2023-02-04T07:02:24.876Z,95.53
2023-02-04T07:06:26.405Z,96.48
2023-02-04T07:10:28.067Z,96.60
2023-02-04T07:14:29.603Z,97.25
2023-02-04T07:18:31.125Z,98.27
2023-02-04T07:22:32.665Z,98.42
2023-02-04T07:26:34.474Z,97.74
2023-02-04T07:30:36.277Z,97.01
2023-02-04T07:34:39.253Z,96.64
2023-02-04T07:38:40.905Z,96.15
2023-02-04T07:42:42.592Z,96.56
2023-02-04T07:46:50.473Z,96.45
2023-02-04T07:50:52.051Z,96.72
2023-02-04T07:54:53.584Z,97.21
2023-02-04T07:58:55.215Z,97.57
2023-02-04T08:02:56.983Z,97.87
2023-02-04T08:06:58.582Z,97.22
2023-02-04T08:11:00.161Z,96.31
2023-02-04T08:15:01.751Z,93.88
2023-02-04T08:19:03.392Z,92.03
2023-02-04T08:23:04.943Z,91.88
2023-02-04T08:27:06.594Z,90.32
2023-02-04T08:31:12.079Z,90.16
2023-02-04T08:35:13.881Z,88.50
2023-02-04T08:39:15.511Z,87.22
2023-02-04T08:43:17.071Z,87.04
2023-02-04T08:47:18.656Z,85.75
2023-02-04T08:51:20.503Z,85.10
2023-02-04T08:55:22.099Z,81.82
2023-02-04T08:59:24.302Z,82.29
2023-02-04T09:03:25.855Z,82.37
2023-02-04T09:07:27.496Z,80.82
2023-02-04T09:11:29.089Z,79.25
2023-02-04T09:15:30.730Z,78.42
2023-02-04T09:19:32.329Z,77.32
2023-02-04T09:23:36.913Z,78.45
2023-02-04T09:27:38.538Z,76.42
2023-02-04T09:31:40.228Z,77.80
2023-02-04T09:35:41.956Z,76.99
2023-02-04T09:39:43.761Z,75.98
2023-02-04T09:43:46.353Z,76.71
2023-02-04T09:47:48.563Z,77.79
2023-02-04T09:51:50.838Z,75.30
2023-02-04T09:55:52.609Z,73.99
2023-02-04T09:59:55.301Z,73.34
2023-02-04T10:04:01.382Z,72.35
2023-02-04T10:08:05.511Z,73.00
2023-02-04T10:12:07.642Z,73.16
2023-02-04T10:16:20.040Z,71.33
2023-02-04T10:20:23.771Z,72.58
2023-02-04T10:24:26.912Z,72.31
2023-02-04T10:28:38.873Z,70.45
2023-02-04T10:32:40.599Z,71.17
2023-02-04T10:36:46.242Z,70.80
2023-02-04T10:40:48.281Z,70.30
2023-02-04T10:44:50.436Z,69.76
2023-02-04T10:48:52.050Z,70.20
2023-02-04T10:53:19.226Z,70.25
2023-02-04T10:57:29.797Z,69.36
2023-02-04T11:01:32.392Z,67.50
2023-02-04T11:05:35.966Z,68.42
2023-02-04T11:09:41.691Z,66.41
2023-02-04T11:13:49.232Z,66.70
2023-02-04T11:18:02.682Z,65.10
2023-02-04T11:22:25.799Z,64.82
2023-02-04T11:26:37.847Z,65.54
2023-02-04T11:30:39.603Z,66.31
2023-02-04T11:34:47.461Z,67.06
2023-02-04T11:38:50.402Z,65.32
2023-02-04T11:42:57.830Z,65.59
2023-02-04T11:47:08.705Z,65.79
2023-02-04T11:51:17.181Z,65.86
2023-02-04T11:55:19.356Z,64.68
2023-02-04T11:59:21.607Z,65.16
2023-02-04T12:03:34.220Z,64.74
2023-02-04T12:07:36.476Z,65.23
2023-02-04T12:11:38.029Z,64.21
2023-02-04T12:15:39.661Z,64.18
2023-02-04T12:19:41.564Z,64.61
2023-02-04T12:23:43.172Z,63.97
2023-02-04T12:27:44.791Z,65.27
2023-02-04T12:31:46.505Z,65.08
2023-02-04T12:35:48.333Z,64.59
2023-02-04T12:39:50.088Z,63.78
2023-02-04T12:43:51.715Z,62.54
2023-02-04T12:47:53.349Z,62.54
2023-02-04T12:51:58.506Z,60.02
2023-02-04T12:56:00.153Z,61.04
2023-02-04T13:00:01.752Z,59.85
2023-02-04T13:04:04.454Z,57.84
2023-02-04T13:08:06.249Z,59.41
2023-02-04T13:12:07.810Z,58.48
2023-02-04T13:16:09.407Z,59.22
2023-02-04T13:20:12.656Z,58.07
2023-02-04T13:24:14.223Z,58.61
2023-02-04T13:28:16.019Z,57.78
2023-02-04T13:32:17.687Z,56.85
2023-02-04T13:36:19.268Z,57.26
2023-02-04T13:40:24.897Z,57.35
2023-02-04T13:44:26.500Z,59.54
2023-02-04T13:48:28.243Z,60.09
2023-02-04T13:52:29.857Z,60.66
2023-02-04T13:56:32.961Z,61.54
2023-02-04T14:00:34.808Z,62.52
2023-02-04T14:04:37.003Z,63.00
2023-02-04T14:08:38.974Z,63.78
2023-02-04T14:12:41.927Z,63.46
2023-02-04T14:16:43.463Z,63.20
2023-02-04T14:20:45.290Z,63.95
2023-02-04T14:24:47.680Z,63.13
2023-02-04T14:28:51.025Z,62.43
2023-02-04T14:32:52.777Z,61.93
2023-02-04T14:36:54.400Z,61.96
2023-02-04T14:40:56.027Z,61.23
2023-02-04T14:44:57.619Z,61.18
2023-02-04T14:48:59.184Z,60.91
2023-02-04T14:53:00.749Z,61.60
2023-02-04T14:57:02.337Z,61.95
2023-02-04T15:01:04.117Z,61.14
2023-02-04T15:05:05.920Z,61.36
2023-02-04T15:09:07.746Z,61.96
2023-02-04T15:13:09.348Z,62.07
2023-02-04T15:17:10.943Z,62.20
2023-02-04T15:21:13.130Z,63.14
2023-02-04T15:25:14.809Z,63.25
2023-02-04T15:29:16.685Z,64.32
2023-02-04T15:33:18.216Z,64.68
2023-02-04T15:37:19.927Z,66.11
2023-02-04T15:41:23.060Z,66.79
2023-02-04T15:45:24.704Z,67.43
2023-02-04T15:49:26.383Z,68.16
2023-02-04T15:53:27.974Z,68.97
2023-02-04T15:57:29.510Z,69.68
2023-02-04T16:01:31.215Z,70.33
2023-02-04T16:05:32.812Z,71.67
2023-02-04T16:09:35.069Z,72.11
2023-02-04T16:23:39.042Z,76.34
2023-02-04T16:27:40.696Z,76.72
2023-02-04T16:31:42.294Z,76.52
2023-02-04T16:36:19.509Z,77.82
2023-02-04T16:40:21.167Z,78.08
2023-02-04T16:44:22.834Z,78.79
2023-02-04T16:48:24.727Z,78.71
2023-02-04T16:52:28.051Z,78.90
2023-02-04T16:56:35.182Z,79.19
2023-02-04T17:00:42.000Z,79.24
2023-02-04T17:04:43.591Z,79.47
2023-02-04T17:08:45.111Z,80.27
2023-02-04T17:12:46.840Z,81.23
2023-02-04T17:16:49.465Z,82.01
2023-02-04T17:20:50.999Z,83.15
2023-02-04T17:24:52.692Z,83.96
2023-02-04T17:28:54.269Z,84.36
2023-02-04T17:32:55.825Z,85.08
2023-02-04T17:36:57.346Z,86.21
2023-02-04T17:40:59.701Z,86.65
2023-02-04T17:45:01.342Z,87.50
2023-02-04T17:49:02.877Z,87.63
2023-02-04T17:53:04.730Z,88.11
2023-02-04T17:57:18.027Z,89.06
2023-02-04T18:01:22.037Z,88.54
2023-02-04T18:05:28.493Z,88.85
2023-02-04T18:09:30.386Z,89.44
2023-02-04T18:13:34.161Z,90.13
2023-02-04T18:17:35.805Z,90.16
2023-02-04T18:21:38.960Z,90.41
2023-02-04T18:25:40.640Z,90.57
2023-02-04T18:29:44.119Z,90.72
2023-02-04T18:33:46.254Z,91.28
2023-02-04T18:37:50.315Z,91.68
2023-02-04T18:41:51.986Z,91.93
2023-02-04T18:45:54.471Z,91.85
2023-02-04T18:49:56.092Z,91.88
2023-02-04T18:54:01.443Z,92.29
2023-02-04T18:58:34.690Z,92.91
2023-02-04T19:02:39.550Z,92.62
2023-02-04T19:06:44.006Z,92.71
2023-02-04T19:10:45.565Z,92.58
2023-02-04T19:14:47.281Z,92.38
2023-02-04T19:18:49.553Z,92.54
2023-02-04T19:22:54.531Z,92.36
2023-02-04T19:27:01.651Z,92.36
2023-02-04T19:31:05.708Z,91.78
2023-02-04T19:35:20.402Z,91.57
2023-02-04T19:39:36.998Z,90.71
2023-02-04T19:43:38.678Z,90.61
2023-02-04T19:47:42.639Z,90.66
2023-02-04T19:51:48.530Z,90.26
2023-02-04T19:55:53.939Z,90.20
2023-02-04T19:59:56.654Z,90.22
2023-02-04T20:04:00.312Z,90.39
2023-02-04T20:08:45.957Z,90.50
2023-02-04T20:13:00.791Z,90.80
2023-02-04T20:17:11.079Z,91.08
2023-02-04T20:21:12.728Z,91.41
2023-02-04T20:25:20.746Z,91.80
2023-02-04T20:29:23.534Z,92.02
2023-02-04T20:33:29.885Z,92.05
2023-02-04T20:37:31.524Z,91.72
2023-02-04T20:41:35.996Z,91.71
2023-02-04T20:45:45.413Z,92.00
2023-02-04T20:49:56.349Z,91.96
2023-02-04T20:53:59.152Z,91.67
2023-02-04T20:58:19.515Z,91.09
2023-02-04T21:02:21.231Z,91.07
2023-02-04T21:06:29.845Z,90.62
2023-02-04T21:10:31.395Z,89.94
2023-02-04T21:14:33.546Z,90.32
2023-02-04T21:18:35.393Z,91.09
2023-02-04T21:22:37.028Z,91.42
2023-02-04T21:26:38.663Z,91.51
2023-02-04T21:30:40.673Z,91.61
2023-02-04T21:34:42.262Z,91.90
2023-02-04T21:38:43.983Z,92.40
2023-02-04T21:42:46.026Z,93.01
2023-02-04T21:46:47.598Z,93.61
2023-02-04T21:50:49.153Z,94.08
2023-02-04T21:54:50.716Z,94.31
2023-02-04T21:58:53.681Z,94.83
2023-02-04T22:02:55.410Z,95.29
2023-02-04T22:06:57.004Z,95.55
2023-02-04T22:10:58.524Z,96.12
2023-02-04T22:15:18.769Z,96.24
2023-02-04T22:19:20.327Z,96.28
2023-02-04T22:23:22.004Z,96.70
2023-02-04T22:27:23.859Z,96.89
2023-02-04T22:31:25.576Z,96.93
2023-02-04T22:35:29.803Z,97.15
2023-02-04T22:39:31.447Z,96.64
2023-02-04T22:43:33.124Z,96.40
2023-02-04T22:47:34.697Z,95.94
2023-02-04T22:51:36.226Z,96.12
2023-02-04T22:55:37.771Z,96.39
2023-02-04T22:59:39.275Z,97.13
2023-02-04T23:03:40.872Z,97.75
2023-02-04T23:07:42.417Z,97.98
2023-02-04T23:11:44.037Z,98.73
2023-02-04T23:15:45.630Z,98.67
2023-02-04T23:19:47.300Z,99.26
2023-02-04T23:23:50.829Z,99.26
2023-02-04T23:27:52.450Z,99.20
2023-02-04T23:31:54.947Z,99.19
2023-02-04T23:35:56.738Z,99.68
2023-02-04T23:39:59.055Z,99.45
2023-02-04T23:44:00.632Z,99.53
2023-02-04T23:48:02.411Z,99.44
2023-02-04T23:52:04.262Z,100.00
2023-02-04T23:56:05.908Z,99.95
